Time;durP1;ratioP1;P1;durP2;ratioP2;P2;SDS_P1;SDS_P2;PMS_P1;PMS_P2;Temp;Humidity;BMP_temperature;BMP_pressure;BME280_temperature;BME280_humidity;BME280_pressure;Samples;Min_cycle;Max_cycle;Signal;HPM_P1;HPM_P2
2022/04/05 00:02:02;;;;;;;6.13;2.87;;;;;;;;;;5024486;28;20559;-59
2022/04/05 00:04:29;;;;;;;9.73;2.87;;;;;;;;;;5008053;28;20561;-59
2022/04/05 00:06:56;;;;;;;12.73;4.93;;;;;;;;;;5025814;28;20494;-59
2022/04/05 00:09:23;;;;;;;12.20;5.17;;;;;;;;;;5027740;28;20448;-59
2022/04/05 00:11:50;;;;;;;9.77;4.87;;;;;;;;;;5026521;28;20544;-59
2022/04/05 00:14:16;;;;;;;14.67;5.60;;;;;;;;;;5026554;28;20433;-59
2022/04/05 00:16:43;;;;;;;9.83;3.73;;;;;;;;;;5023973;28;20434;-59
2022/04/05 00:19:10;;;;;;;6.60;3.53;;;;;;;;;;5008196;28;20862;-59
2022/04/05 00:21:36;;;;;;;8.13;4.03;;;;;;;;;;5013355;28;20450;-59
2022/04/05 00:24:21;;;;;;;14.23;3.57;;;;;;;;;;5020631;28;20446;-59
2022/04/05 00:26:48;;;;;;;7.73;2.47;;;;;;;;;;5018296;28;20472;-60
2022/04/05 00:29:14;;;;;;;8.60;3.00;;;;;;;;;;5027859;28;20769;-60
2022/04/05 00:31:41;;;;;;;12.10;2.77;;;;;;;;;;5008751;28;20467;-61
2022/04/05 00:34:08;;;;;;;6.03;2.40;;;;;;;;;;5008552;28;20454;-60
2022/04/05 00:36:35;;;;;;;13.23;2.73;;;;;;;;;;5007019;28;20443;-60
2022/04/05 00:39:01;;;;;;;11.60;2.50;;;;;;;;;;5009624;28;20442;-60
2022/04/05 00:41:28;;;;;;;9.43;2.83;;;;;;;;;;5008592;28;20845;-60
2022/04/05 00:43:55;;;;;;;11.20;1.97;;;;;;;;;;5007841;28;20442;-60
2022/04/05 00:46:21;;;;;;;17.10;2.87;;;;;;;;;;5008076;28;20477;-60
2022/04/05 00:48:52;;;;;;;10.50;2.80;;;;;;;;;;5009364;28;20449;-60
2022/04/05 00:51:19;;;;;;;8.53;1.77;;;;;;;;;;5011484;28;20963;-59
2022/04/05 00:53:48;;;;;;;7.17;2.37;;;;;;;;;;5011206;28;20457;-60
2022/04/05 00:56:14;;;;;;;8.60;2.37;;;;;;;;;;5012047;28;20442;-60
2022/04/05 00:58:59;;;;;;;10.03;2.30;;;;;;;;;;5011766;28;20440;-61
2022/04/05 01:01:26;;;;;;;10.03;2.47;;;;;;;;;;5012673;28;20442;-59
2022/04/05 01:04:14;;;;;;;16.17;2.93;;;;;;;;;;5019464;28;20867;-59
2022/04/05 01:38:38;;;;;;;9.87;1.90;;;;;;;;;;5030043;28;20441;-59
2022/04/05 01:41:05;;;;;;;5.93;1.37;;;;;;;;;;5011891;28;20457;-59
2022/04/05 01:43:31;;;;;;;14.90;2.00;;;;;;;;;;5010918;28;20439;-59
2022/04/05 01:45:58;;;;;;;3.57;0.77;;;;;;;;;;5010833;28;20529;-59
2022/04/05 01:48:25;;;;;;;11.83;2.90;;;;;;;;;;5010597;28;20521;-59
2022/04/05 01:50:52;;;;;;;12.17;2.23;;;;;;;;;;5010945;28;20501;-59
2022/04/05 01:53:18;;;;;;;6.57;1.90;;;;;;;;;;5010883;28;20775;-59
2022/04/05 01:55:46;;;;;;;11.13;2.23;;;;;;;;;;5019510;28;20988;-60
2022/04/05 01:58:12;;;;;;;9.23;1.83;;;;;;;;;;5030189;28;20543;-59
2022/04/05 02:00:39;;;;;;;10.93;2.20;;;;;;;;;;5024027;28;20553;-59
2022/04/05 02:03:06;;;;;;;7.70;1.67;;;;;;;;;;5023074;28;20439;-59
2022/04/05 02:05:33;;;;;;;7.93;1.57;;;;;;;;;;5015836;28;20442;-59
2022/04/05 02:08:00;;;;;;;10.40;1.93;;;;;;;;;;5009893;28;20451;-59
2022/04/05 02:10:27;;;;;;;12.03;2.13;;;;;;;;;;5010592;28;20442;-59
2022/04/05 02:12:54;;;;;;;5.83;2.10;;;;;;;;;;5008864;28;20443;-59
2022/04/05 02:15:33;;;;;;;11.83;2.30;;;;;;;;;;5009276;28;21205;-59
2022/04/05 02:18:05;;;;;;;10.20;2.90;;;;;;;;;;5011896;28;20954;-59
2022/04/05 02:20:33;;;;;;;18.50;3.03;;;;;;;;;;5015954;28;20447;-59
2022/04/05 02:23:01;;;;;;;16.87;3.27;;;;;;;;;;5014921;28;20865;-59
2022/04/05 02:25:53;;;;;;;4.77;1.83;;;;;;;;;;5028702;28;21132;-59
2022/04/05 02:28:24;;;;;;;11.03;1.20;;;;;;;;;;5026382;28;20438;-59
2022/04/05 02:30:54;;;;;;;12.47;1.93;;;;;;;;;;5009286;28;20446;-60
2022/04/05 02:33:39;;;;;;;8.97;2.00;;;;;;;;;;5019522;28;20481;-60
2022/04/05 02:36:13;;;;;;;13.30;2.00;;;;;;;;;;5016475;28;20483;-59
2022/04/05 02:38:40;;;;;;;7.97;1.80;;;;;;;;;;5015884;28;20447;-60
2022/04/05 02:41:08;;;;;;;15.67;2.10;;;;;;;;;;5022596;28;20530;-59
2022/04/05 02:43:36;;;;;;;4.90;1.47;;;;;;;;;;5008299;28;20465;-60
2022/04/05 02:46:05;;;;;;;5.37;1.67;;;;;;;;;;4996333;28;20467;-60
2022/04/05 02:48:32;;;;;;;3.77;0.90;;;;;;;;;;5010978;28;20454;-61
2022/04/05 02:51:02;;;;;;;5.23;1.20;;;;;;;;;;5009610;28;20478;-60
2022/04/05 02:53:29;;;;;;;7.47;1.60;;;;;;;;;;5009799;28;20448;-60
2022/04/05 02:55:56;;;;;;;2.90;1.03;;;;;;;;;;5027359;28;20447;-60
2022/04/05 02:58:23;;;;;;;10.00;2.00;;;;;;;;;;5027197;28;20960;-59
2022/04/05 03:01:09;;;;;;;8.83;2.67;;;;;;;;;;5024738;28;20430;-60
2022/04/05 03:03:38;;;;;;;7.97;1.97;;;;;;;;;;5007815;28;20470;-60
2022/04/05 03:06:05;;;;;;;13.53;2.17;;;;;;;;;;5008723;28;20482;-60
2022/04/05 03:08:31;;;;;;;10.93;3.27;;;;;;;;;;5015584;28;20470;-60
2022/04/05 03:11:02;;;;;;;11.33;2.73;;;;;;;;;;5027684;28;20451;-60
2022/04/05 03:13:49;;;;;;;7.60;3.47;;;;;;;;;;5025315;28;20431;-60
2022/04/05 03:16:16;;;;;;;8.23;2.33;;;;;;;;;;5006878;28;20443;-60
2022/04/05 03:19:00;;;;;;;8.57;2.23;;;;;;;;;;5007595;28;20490;-60
2022/04/05 03:21:28;;;;;;;5.73;1.63;;;;;;;;;;5009357;28;20459;-60
2022/04/05 03:24:12;;;;;;;4.20;1.30;;;;;;;;;;5023935;28;20429;-59
2022/04/05 03:26:39;;;;;;;9.20;2.23;;;;;;;;;;5026458;28;21237;-60
2022/04/05 03:29:25;;;;;;;14.37;2.20;;;;;;;;;;5018694;28;20448;-60
2022/04/05 03:31:51;;;;;;;9.93;2.70;;;;;;;;;;5008861;28;20450;-59
2022/04/05 03:34:36;;;;;;;16.07;2.27;;;;;;;;;;5008513;28;20434;-59
2022/04/05 03:37:03;;;;;;;3.90;1.87;;;;;;;;;;5028704;28;20434;-59
2022/04/05 03:39:29;;;;;;;14.00;2.77;;;;;;;;;;5021072;28;20942;-59
2022/04/05 03:41:57;;;;;;;10.57;2.30;;;;;;;;;;5007688;28;20913;-59
2022/04/05 03:44:24;;;;;;;19.07;2.73;;;;;;;;;;5007442;28;20448;-59
2022/04/05 03:47:09;;;;;;;19.40;3.10;;;;;;;;;;5007862;28;20474;-59
2022/04/05 03:49:36;;;;;;;13.73;2.60;;;;;;;;;;5017660;28;21376;-60
2022/04/05 03:52:20;;;;;;;10.97;2.47;;;;;;;;;;5011173;28;20489;-59
2022/04/05 03:54:48;;;;;;;7.07;1.90;;;;;;;;;;5007472;28;20934;-59
2022/04/05 03:57:34;;;;;;;11.30;2.37;;;;;;;;;;5007419;28;20982;-60
2022/04/05 04:00:02;;;;;;;9.90;2.20;;;;;;;;;;5009733;28;20426;-59
2022/04/05 04:02:34;;;;;;;8.47;1.80;;;;;;;;;;5025209;28;20469;-60
2022/04/05 04:05:02;;;;;;;15.50;2.77;;;;;;;;;;5006256;28;20497;-59
2022/04/05 04:07:29;;;;;;;7.10;1.90;;;;;;;;;;5019772;28;20568;-60
2022/04/05 04:10:13;;;;;;;9.00;1.53;;;;;;;;;;4997726;28;20570;-62
2022/04/05 04:12:40;;;;;;;8.87;2.80;;;;;;;;;;4999530;28;20450;-62
2022/04/05 04:15:08;;;;;;;13.80;3.27;;;;;;;;;;5015920;28;20447;-62
2022/04/05 04:17:35;;;;;;;12.20;2.90;;;;;;;;;;4997928;28;20457;-61
2022/04/05 04:20:04;;;;;;;11.17;2.73;;;;;;;;;;4999170;28;20451;-61
2022/04/05 04:22:31;;;;;;;9.33;3.03;;;;;;;;;;4997765;28;20471;-65
2022/04/05 04:24:58;;;;;;;12.67;3.20;;;;;;;;;;4999165;28;20450;-61
2022/04/05 04:27:26;;;;;;;7.93;2.60;;;;;;;;;;5002746;28;20566;-61
2022/04/05 04:29:53;;;;;;;6.43;2.37;;;;;;;;;;5000946;28;21266;-60
2022/04/05 04:32:20;;;;;;;11.13;3.20;;;;;;;;;;5015543;28;20461;-60
2022/04/05 04:34:47;;;;;;;7.60;1.40;;;;;;;;;;5016655;28;20446;-61
2022/04/05 04:37:16;;;;;;;3.67;1.40;;;;;;;;;;5011379;28;20507;-61
2022/04/05 04:39:43;;;;;;;13.00;2.63;;;;;;;;;;5000500;28;20977;-61
2022/04/05 04:42:12;;;;;;;10.80;2.40;;;;;;;;;;4989064;28;21013;-61
2022/04/05 04:44:39;;;;;;;10.83;1.93;;;;;;;;;;5007974;28;20532;-61
2022/04/05 04:47:06;;;;;;;7.33;1.80;;;;;;;;;;5003632;28;20471;-61
2022/04/05 04:49:33;;;;;;;6.23;1.33;;;;;;;;;;5000880;28;20439;-61
2022/04/05 04:51:59;;;;;;;6.73;1.43;;;;;;;;;;5018745;28;20423;-61
2022/04/05 04:54:26;;;;;;;3.00;1.20;;;;;;;;;;5014090;28;20524;-60
2022/04/05 04:56:53;;;;;;;4.37;1.17;;;;;;;;;;5023422;28;20434;-62
2022/04/05 04:59:20;;;;;;;7.60;2.10;;;;;;;;;;5017013;28;20846;-60
2022/04/05 05:01:46;;;;;;;11.30;2.90;;;;;;;;;;5013434;28;20854;-60
2022/04/05 05:04:13;;;;;;;9.03;2.33;;;;;;;;;;5029232;28;20948;-61
2022/04/05 05:06:40;;;;;;;8.50;1.40;;;;;;;;;;5007804;28;20471;-60
2022/04/05 05:09:07;;;;;;;4.30;1.53;;;;;;;;;;5017278;28;20995;-61
2022/04/05 05:11:34;;;;;;;6.13;2.03;;;;;;;;;;5015597;28;20447;-60
2022/04/05 05:14:00;;;;;;;7.87;2.77;;;;;;;;;;5007810;28;20439;-61
2022/04/05 05:16:27;;;;;;;5.53;2.03;;;;;;;;;;5020939;28;20460;-60
2022/04/05 05:18:54;;;;;;;10.53;2.20;;;;;;;;;;5011860;28;20446;-61
2022/04/05 05:21:23;;;;;;;5.67;1.70;;;;;;;;;;5017685;28;20438;-61
2022/04/05 05:23:50;;;;;;;7.20;2.17;;;;;;;;;;5027989;28;20473;-60
2022/04/05 05:26:17;;;;;;;7.73;1.97;;;;;;;;;;5040442;28;20495;-60
2022/04/05 05:28:44;;;;;;;7.37;1.90;;;;;;;;;;5039832;28;20433;-61
2022/04/05 05:31:11;;;;;;;7.67;2.17;;;;;;;;;;5039334;28;20442;-61
2022/04/05 05:33:38;;;;;;;13.83;2.83;;;;;;;;;;5037086;28;20509;-65
2022/04/05 05:36:05;;;;;;;7.83;2.67;;;;;;;;;;5040545;28;20525;-61
2022/04/05 05:38:32;;;;;;;10.17;2.30;;;;;;;;;;5039302;28;20449;-63
2022/04/05 05:40:59;;;;;;;9.13;2.47;;;;;;;;;;5038437;28;20433;-60
2022/04/05 05:43:45;;;;;;;7.73;2.50;;;;;;;;;;5040638;28;20413;-61
2022/04/05 05:46:12;;;;;;;11.70;2.80;;;;;;;;;;5035005;28;20484;-61
2022/04/05 05:48:39;;;;;;;10.33;2.73;;;;;;;;;;5037520;28;20451;-60
2022/04/05 05:51:06;;;;;;;9.17;2.80;;;;;;;;;;5042181;28;20542;-61
2022/04/05 05:53:34;;;;;;;9.63;2.20;;;;;;;;;;5043341;28;20469;-59
2022/04/05 05:56:00;;;;;;;8.87;2.40;;;;;;;;;;5043869;28;20439;-60
2022/04/05 05:58:27;;;;;;;9.87;3.27;;;;;;;;;;5044155;28;20533;-61
2022/04/05 06:00:55;;;;;;;10.03;2.40;;;;;;;;;;5043555;28;20441;-63
2022/04/05 06:03:25;;;;;;;7.17;2.40;;;;;;;;;;5043903;28;20860;-62
2022/04/05 06:05:54;;;;;;;9.87;2.63;;;;;;;;;;5041721;28;20476;-60
2022/04/05 06:08:21;;;;;;;10.40;2.60;;;;;;;;;;5041998;28;20476;-62
2022/04/05 06:10:48;;;;;;;8.73;2.60;;;;;;;;;;5043353;28;20840;-60
2022/04/05 06:13:15;;;;;;;4.87;1.77;;;;;;;;;;5043761;28;20512;-61
2022/04/05 06:15:42;;;;;;;20.10;2.73;;;;;;;;;;5042994;28;20544;-61
2022/04/05 06:18:09;;;;;;;5.13;1.67;;;;;;;;;;5042553;28;20525;-61
2022/04/05 06:20:36;;;;;;;11.43;2.80;;;;;;;;;;5040383;28;20453;-62
2022/04/05 06:23:03;;;;;;;6.20;2.10;;;;;;;;;;5043288;28;20433;-61
2022/04/05 06:25:47;;;;;;;7.20;2.43;;;;;;;;;;5042230;28;20442;-62
2022/04/05 06:28:16;;;;;;;6.40;2.07;;;;;;;;;;5020010;28;20483;-64
2022/04/05 06:30:43;;;;;;;5.87;1.70;;;;;;;;;;5021748;28;20492;-65
2022/04/05 06:33:11;;;;;;;9.40;2.87;;;;;;;;;;5023052;28;20849;-66
2022/04/05 06:35:39;;;;;;;8.60;2.33;;;;;;;;;;5021574;28;20430;-66
2022/04/05 06:38:06;;;;;;;4.23;2.00;;;;;;;;;;5023564;28;20496;-65
2022/04/05 06:40:33;;;;;;;8.90;2.27;;;;;;;;;;5021369;28;20442;-63
2022/04/05 06:43:00;;;;;;;1.33;0.80;;;;;;;;;;5019969;28;20442;-65
2022/04/05 06:45:27;;;;;;;6.13;2.10;;;;;;;;;;5022627;28;20487;-65
2022/04/05 06:47:54;;;;;;;7.43;2.50;;;;;;;;;;5022678;28;20582;-68
2022/04/05 06:50:24;;;;;;;5.80;2.23;;;;;;;;;;5020943;28;20964;-64
2022/04/05 06:52:52;;;;;;;4.30;2.37;;;;;;;;;;5022368;28;20456;-70
2022/04/05 06:55:20;;;;;;;4.60;1.07;;;;;;;;;;5020129;28;20438;-68
2022/04/05 06:57:48;;;;;;;1.70;1.20;;;;;;;;;;5020697;28;20418;-66
2022/04/05 07:00:17;;;;;;;2.93;1.20;;;;;;;;;;5021012;28;20488;-63
2022/04/05 07:02:44;;;;;;;2.60;1.50;;;;;;;;;;5021866;28;20527;-69
2022/04/05 07:05:11;;;;;;;3.63;1.97;;;;;;;;;;5023498;28;20505;-64
2022/04/05 07:07:38;;;;;;;9.03;5.53;;;;;;;;;;5022822;28;21018;-68
2022/04/05 07:10:06;;;;;;;12.23;6.57;;;;;;;;;;4990837;28;20314;-66
2022/04/05 07:12:33;;;;;;;17.03;8.97;;;;;;;;;;5020470;28;20270;-69
2022/04/05 07:15:00;;;;;;;5.53;3.20;;;;;;;;;;5021586;28;20188;-69
2022/04/05 07:17:28;;;;;;;8.93;5.87;;;;;;;;;;5021610;28;20211;-64
2022/04/05 07:20:16;;;;;;;3.57;2.13;;;;;;;;;;5020770;28;20209;-58
2022/04/05 07:22:48;;;;;;;1.40;1.07;;;;;;;;;;5021696;28;20202;-59
2022/04/05 07:25:17;;;;;;;2.37;1.30;;;;;;;;;;5022012;28;20270;-58
2022/04/05 07:27:44;;;;;;;1.30;1.00;;;;;;;;;;5019324;28;21054;-62
2022/04/05 07:30:12;;;;;;;2.07;0.80;;;;;;;;;;5011518;28;20866;-61
2022/04/05 07:32:39;;;;;;;1.20;0.70;;;;;;;;;;5021106;28;20280;-61
2022/04/05 07:35:06;;;;;;;1.80;0.70;;;;;;;;;;5022973;28;20211;-59
2022/04/05 07:37:33;;;;;;;1.80;1.33;;;;;;;;;;5022450;28;20223;-60
2022/04/05 07:40:00;;;;;;;2.90;1.33;;;;;;;;;;5019825;28;20199;-60
2022/04/05 07:42:27;;;;;;;3.67;1.63;;;;;;;;;;5021743;28;20183;-59
2022/04/05 07:44:54;;;;;;;2.93;2.10;;;;;;;;;;5021433;28;20215;-59
2022/04/05 07:47:25;;;;;;;3.07;1.03;;;;;;;;;;5021030;28;20314;-59
2022/04/05 07:49:51;;;;;;;1.10;1.00;;;;;;;;;;5020640;28;20654;-58
2022/04/05 07:52:19;;;;;;;2.90;1.80;;;;;;;;;;5020456;28;20222;-58
2022/04/05 07:54:46;;;;;;;5.67;3.33;;;;;;;;;;5021068;28;20207;-60
2022/04/05 07:57:13;;;;;;;4.83;2.77;;;;;;;;;;5020441;28;20295;-60
2022/04/05 07:59:40;;;;;;;7.63;3.97;;;;;;;;;;5019590;28;20195;-59
2022/04/05 08:02:07;;;;;;;2.63;1.63;;;;;;;;;;5020703;28;20730;-59
2022/04/05 08:04:54;;;;;;;1.20;0.80;;;;;;;;;;5018833;28;20274;-64
2022/04/05 08:07:21;;;;;;;1.40;0.90;;;;;;;;;;5020495;28;20207;-64
2022/04/05 08:10:05;;;;;;;1.37;0.80;;;;;;;;;;5018473;28;20321;-73
2022/04/05 08:12:43;;;;;;;1.87;0.80;;;;;;;;;;5021300;28;20693;-63
2022/04/05 08:15:28;;;;;;;0.40;0.20;;;;;;;;;;5020908;28;20715;-65
2022/04/05 08:17:56;;;;;;;0.73;0.30;;;;;;;;;;5020927;28;20253;-69
2022/04/05 08:20:41;;;;;;;1.07;0.40;;;;;;;;;;5004306;28;20441;-69
2022/04/05 08:23:09;;;;;;;1.30;0.53;;;;;;;;;;5020978;28;20834;-61
2022/04/05 08:25:36;;;;;;;3.47;1.80;;;;;;;;;;5020175;28;20454;-63
2022/04/05 08:28:04;;;;;;;2.97;1.63;;;;;;;;;;5019548;28;20532;-60
2022/04/05 08:30:30;;;;;;;1.83;0.60;;;;;;;;;;5019597;28;20449;-60
2022/04/05 08:32:58;;;;;;;1.27;0.40;;;;;;;;;;5020910;28;20544;-60
2022/04/05 08:35:25;;;;;;;1.50;0.50;;;;;;;;;;5035394;28;20477;-64
2022/04/05 08:37:52;;;;;;;1.40;1.13;;;;;;;;;;5020215;28;20550;-60
2022/04/05 08:40:20;;;;;;;4.23;1.60;;;;;;;;;;5018945;28;20242;-59
2022/04/05 08:42:48;;;;;;;1.33;1.17;;;;;;;;;;5019851;28;20613;-59
2022/04/05 08:45:16;;;;;;;6.83;4.03;;;;;;;;;;5016847;28;20434;-59
2022/04/05 08:47:46;;;;;;;0.93;0.50;;;;;;;;;;5016425;28;20215;-60
2022/04/05 08:50:14;;;;;;;5.37;3.30;;;;;;;;;;5021149;28;20457;-60
2022/04/05 08:52:42;;;;;;;2.90;1.63;;;;;;;;;;5021741;28;20430;-61
2022/04/05 08:55:09;;;;;;;3.73;2.20;;;;;;;;;;5021856;28;20948;-60
2022/04/05 08:57:36;;;;;;;6.87;4.23;;;;;;;;;;5022197;28;20442;-60
2022/04/05 09:00:04;;;;;;;16.13;8.00;;;;;;;;;;5018737;28;20446;-60
2022/04/05 09:02:31;;;;;;;2.03;1.00;;;;;;;;;;5021884;28;20430;-60
2022/04/05 09:04:58;;;;;;;3.33;1.80;;;;;;;;;;5019649;28;20508;-60
2022/04/05 09:07:28;;;;;;;7.07;3.20;;;;;;;;;;5021210;28;20532;-59
2022/04/05 09:10:14;;;;;;;4.77;1.60;;;;;;;;;;5022690;28;20539;-60
2022/04/05 09:12:46;;;;;;;2.77;1.30;;;;;;;;;;5025269;28;21292;-60
2022/04/05 09:15:34;;;;;;;12.07;5.10;;;;;;;;;;5023427;28;20421;-59
2022/04/05 09:18:01;;;;;;;0.80;0.50;;;;;;;;;;5024635;28;20800;-54
2022/04/05 09:20:28;;;;;;;0.93;0.80;;;;;;;;;;5024709;28;20449;-61
2022/04/05 09:22:56;;;;;;;1.30;0.57;;;;;;;;;;5023760;28;20438;-60
2022/04/05 09:25:23;;;;;;;0.77;0.30;;;;;;;;;;5024881;28;21618;-59
2022/04/05 09:27:51;;;;;;;0.67;0.40;;;;;;;;;;5025666;28;20477;-59
2022/04/05 09:30:28;;;;;;;0.33;0.33;;;;;;;;;;5024564;28;20525;-60
2022/04/05 09:32:56;;;;;;;1.80;0.80;;;;;;;;;;5022774;28;20452;-61
2022/04/05 09:35:27;;;;;;;1.90;1.03;;;;;;;;;;5022468;28;20438;-61
2022/04/05 09:38:14;;;;;;;4.53;1.27;;;;;;;;;;5011949;28;20465;-59
2022/04/05 09:40:42;;;;;;;3.07;1.30;;;;;;;;;;5022916;28;20453;-62
2022/04/05 09:43:29;;;;;;;3.93;2.20;;;;;;;;;;5022536;28;20541;-60
2022/04/05 09:45:58;;;;;;;9.23;4.67;;;;;;;;;;5021290;28;20480;-62
2022/04/05 09:48:26;;;;;;;3.83;1.90;;;;;;;;;;5022053;28;21042;-60
2022/04/05 09:50:57;;;;;;;2.20;1.00;;;;;;;;;;5023926;28;20441;-60
2022/04/05 09:53:45;;;;;;;2.70;1.47;;;;;;;;;;5023036;28;20525;-61
2022/04/05 09:56:17;;;;;;;0.80;0.33;;;;;;;;;;5021969;28;20450;-60
2022/04/05 09:58:52;;;;;;;1.00;0.40;;;;;;;;;;5023282;28;20442;-60
2022/04/05 10:01:20;;;;;;;2.70;0.70;;;;;;;;;;5022641;28;20446;-60
2022/04/05 10:04:04;;;;;;;2.70;0.70;;;;;;;;;;5022508;28;20481;-64
2022/04/05 10:06:31;;;;;;;0.60;0.40;;;;;;;;;;5022248;28;20538;-60
2022/04/05 10:08:59;;;;;;;1.53;0.50;;;;;;;;;;5022653;28;20490;-60
2022/04/05 10:11:30;;;;;;;1.63;0.60;;;;;;;;;;5022516;28;20442;-60
2022/04/05 10:13:56;;;;;;;1.97;1.00;;;;;;;;;;5022904;28;20464;-60
2022/04/05 10:16:25;;;;;;;2.47;1.00;;;;;;;;;;5023185;28;20437;-60
2022/04/05 10:19:09;;;;;;;1.97;1.07;;;;;;;;;;5023117;28;20449;-59
2022/04/05 10:21:38;;;;;;;3.13;1.20;;;;;;;;;;5022674;28;20442;-59
2022/04/05 10:24:05;;;;;;;1.57;0.53;;;;;;;;;;5022197;28;20529;-60
2022/04/05 10:26:32;;;;;;;5.47;1.17;;;;;;;;;;5025529;28;20442;-59
2022/04/05 10:29:18;;;;;;;2.27;1.40;;;;;;;;;;5030142;28;20210;-59
2022/04/05 10:31:51;;;;;;;0.87;0.57;;;;;;;;;;5028748;28;20179;-59
2022/04/05 10:34:56;;;;;;;1.30;0.50;;;;;;;;;;5029016;28;20235;-59
2022/04/05 10:37:30;;;;;;;1.10;0.57;;;;;;;;;;5007348;28;20196;-59
2022/04/05 10:40:15;;;;;;;1.47;0.60;;;;;;;;;;5007407;28;20176;-59
2022/04/05 10:42:46;;;;;;;1.67;0.50;;;;;;;;;;5008983;28;20322;-59
2022/04/05 10:45:13;;;;;;;1.73;1.00;;;;;;;;;;5010125;28;20191;-59
2022/04/05 10:47:55;;;;;;;2.20;0.67;;;;;;;;;;5009539;28;20196;-59
2022/04/05 10:50:45;;;;;;;2.13;0.80;;;;;;;;;;5010082;28;20875;-59
2022/04/05 10:53:12;;;;;;;2.40;1.73;;;;;;;;;;5010319;28;20203;-59
2022/04/05 10:56:02;;;;;;;1.70;0.93;;;;;;;;;;5009899;28;20199;-59
2022/04/05 10:58:35;;;;;;;3.47;1.07;;;;;;;;;;5006974;28;20224;-59
2022/04/05 11:01:14;;;;;;;1.73;0.90;;;;;;;;;;5009700;28;20223;-59
2022/04/05 11:03:41;;;;;;;2.13;0.63;;;;;;;;;;5009286;28;20459;-59
2022/04/05 11:06:08;;;;;;;1.43;1.03;;;;;;;;;;5009430;28;20481;-59
2022/04/05 11:08:35;;;;;;;3.70;2.57;;;;;;;;;;5009902;28;20517;-59
2022/04/05 11:11:04;;;;;;;1.60;0.80;;;;;;;;;;5008872;28;20279;-58
2022/04/05 11:13:51;;;;;;;1.20;0.70;;;;;;;;;;5009286;28;20415;-59
2022/04/05 11:16:19;;;;;;;3.83;1.10;;;;;;;;;;5008197;28;20195;-59
2022/04/05 11:18:46;;;;;;;1.57;0.80;;;;;;;;;;5008783;28;20275;-62
2022/04/05 11:21:13;;;;;;;0.97;0.40;;;;;;;;;;5009309;28;20738;-61
2022/04/05 11:23:47;;;;;;;1.37;0.80;;;;;;;;;;5026508;28;20234;-62
2022/04/05 11:26:35;;;;;;;3.27;1.47;;;;;;;;;;5038992;28;20664;-61
2022/04/05 11:29:20;;;;;;;1.70;1.10;;;;;;;;;;5040137;28;20222;-62
2022/04/05 11:31:48;;;;;;;1.50;0.70;;;;;;;;;;5040619;28;20317;-63
2022/04/05 11:34:34;;;;;;;4.77;0.70;;;;;;;;;;5037929;28;20190;-61
2022/04/05 11:37:01;;;;;;;0.60;0.30;;;;;;;;;;5040682;28;20182;-61
2022/04/05 11:39:28;;;;;;;1.97;0.50;;;;;;;;;;5041183;28;20201;-62
2022/04/05 11:42:01;;;;;;;1.80;0.80;;;;;;;;;;5041374;28;20605;-61
2022/04/05 11:44:49;;;;;;;3.33;0.90;;;;;;;;;;5040960;28;20918;-62
2022/04/05 11:47:16;;;;;;;2.27;0.40;;;;;;;;;;5042026;28;20260;-60
2022/04/05 11:49:43;;;;;;;1.90;0.80;;;;;;;;;;5041221;28;20579;-60
2022/04/05 11:52:10;;;;;;;1.87;1.20;;;;;;;;;;5039304;28;20534;-60
2022/04/05 11:57:42;;;;;;;1.70;0.60;;;;;;;;;;5040538;28;20494;-59
2022/04/05 12:00:10;;;;;;;0.87;0.60;;;;;;;;;;5040409;28;20487;-60
2022/04/05 12:02:37;;;;;;;2.07;0.93;;;;;;;;;;5041974;28;20441;-60
2022/04/05 12:05:04;;;;;;;0.87;0.63;;;;;;;;;;5040858;28;20491;-64
2022/04/05 12:07:32;;;;;;;1.37;0.50;;;;;;;;;;5041780;28;20445;-60
2022/04/05 12:09:59;;;;;;;0.80;0.50;;;;;;;;;;5036461;28;20853;-64
2022/04/05 12:12:26;;;;;;;1.93;0.40;;;;;;;;;;5040847;28;20441;-63
2022/04/05 12:14:53;;;;;;;0.87;0.53;;;;;;;;;;5039369;28;20784;-61
2022/04/05 12:17:24;;;;;;;3.33;0.90;;;;;;;;;;5040083;28;20451;-62
2022/04/05 12:19:52;;;;;;;2.20;0.80;;;;;;;;;;5040729;28;20229;-62
2022/04/05 12:22:19;;;;;;;1.80;1.00;;;;;;;;;;5021863;28;20553;-61
2022/04/05 12:24:57;;;;;;;2.60;1.00;;;;;;;;;;5019819;28;20273;-61
2022/04/05 12:27:24;;;;;;;3.57;1.00;;;;;;;;;;5017669;28;20202;-61
2022/04/05 12:29:57;;;;;;;2.73;1.20;;;;;;;;;;5025733;28;20310;-61
2022/04/05 12:32:25;;;;;;;2.50;1.10;;;;;;;;;;5019130;28;20605;-61
2022/04/05 12:34:52;;;;;;;1.67;1.00;;;;;;;;;;5017473;28;20266;-60
2022/04/05 12:37:20;;;;;;;1.50;1.00;;;;;;;;;;5025749;28;20246;-60
2022/04/05 12:39:50;;;;;;;2.77;1.17;;;;;;;;;;5022734;28;20582;-60
2022/04/05 12:42:17;;;;;;;2.77;2.00;;;;;;;;;;5023420;28;20290;-63
2022/04/05 12:44:44;;;;;;;1.80;0.90;;;;;;;;;;5026855;28;20666;-60
2022/04/05 12:47:16;;;;;;;1.00;0.67;;;;;;;;;;5030764;28;20242;-60
2022/04/05 12:49:43;;;;;;;1.77;0.97;;;;;;;;;;5031248;28;20688;-60
2022/04/05 12:52:10;;;;;;;4.53;1.87;;;;;;;;;;5032013;28;20195;-60
2022/04/05 12:54:39;;;;;;;4.47;1.87;;;;;;;;;;5031784;28;20172;-60
2022/04/05 12:57:23;;;;;;;2.13;1.07;;;;;;;;;;5018230;28;20183;-59
2022/04/05 12:59:51;;;;;;;2.57;1.13;;;;;;;;;;5012100;28;20283;-61
2022/04/05 13:02:22;;;;;;;2.03;1.13;;;;;;;;;;5012625;28;20230;-60
2022/04/05 13:04:49;;;;;;;2.70;0.87;;;;;;;;;;5023223;28;20301;-59
2022/04/05 13:07:16;;;;;;;3.63;1.00;;;;;;;;;;5030679;28;20183;-59
2022/04/05 13:09:42;;;;;;;1.63;0.93;;;;;;;;;;5012545;28;20249;-60
2022/04/05 13:12:12;;;;;;;1.20;0.80;;;;;;;;;;5010600;28;20679;-61
2022/04/05 13:14:39;;;;;;;5.13;1.43;;;;;;;;;;5016312;28;20195;-60
2022/04/05 13:17:07;;;;;;;1.40;1.00;;;;;;;;;;5034354;28;20191;-60
2022/04/05 13:19:33;;;;;;;5.83;3.40;;;;;;;;;;5037319;28;20218;-60
2022/04/05 13:22:00;;;;;;;5.67;2.63;;;;;;;;;;5021894;28;20247;-61
2022/04/05 13:24:38;;;;;;;5.70;4.00;;;;;;;;;;5034803;28;20196;-61
2022/04/05 13:27:05;;;;;;;2.20;1.00;;;;;;;;;;5016077;28;20179;-62
2022/04/05 13:29:33;;;;;;;3.30;1.90;;;;;;;;;;5016886;28;20691;-61
2022/04/05 13:32:01;;;;;;;1.53;0.90;;;;;;;;;;5021564;28;20231;-62
2022/04/05 13:34:31;;;;;;;1.90;1.00;;;;;;;;;;5021589;28;20199;-61
2022/04/05 13:37:00;;;;;;;1.70;0.40;;;;;;;;;;5021906;28;20284;-63
2022/04/05 13:39:35;;;;;;;0.87;0.43;;;;;;;;;;4989273;28;20210;-61
2022/04/05 13:42:04;;;;;;;2.10;1.10;;;;;;;;;;5006087;28;20196;-61
2022/04/05 13:44:34;;;;;;;1.93;0.63;;;;;;;;;;5006103;28;20285;-59
2022/04/05 13:47:03;;;;;;;0.90;0.70;;;;;;;;;;5025015;28;20238;-60
2022/04/05 13:49:30;;;;;;;2.27;0.80;;;;;;;;;;5022511;28;20295;-61
2022/04/05 13:51:57;;;;;;;1.50;0.60;;;;;;;;;;5018760;28;20597;-60
2022/04/05 13:54:45;;;;;;;2.60;1.17;;;;;;;;;;5018447;28;20198;-60
2022/04/05 13:57:16;;;;;;;1.77;0.80;;;;;;;;;;5020994;28;20472;-61
2022/04/05 13:59:44;;;;;;;1.80;1.10;;;;;;;;;;5022263;28;21016;-61
2022/04/05 14:02:11;;;;;;;3.20;0.90;;;;;;;;;;5021259;28;20445;-61
2022/04/05 14:04:56;;;;;;;2.40;1.23;;;;;;;;;;5020127;28;20474;-60
2022/04/05 14:07:23;;;;;;;1.43;0.40;;;;;;;;;;5019129;28;20477;-62
2022/04/05 14:09:51;;;;;;;1.00;0.70;;;;;;;;;;5021452;28;20493;-67
2022/04/05 14:12:18;;;;;;;1.50;0.90;;;;;;;;;;5019623;28;20779;-74
2022/04/05 14:14:50;;;;;;;1.07;0.60;;;;;;;;;;5021183;28;20454;-68
2022/04/05 14:17:17;;;;;;;2.40;1.00;;;;;;;;;;5022348;28;20841;-69
2022/04/05 14:19:44;;;;;;;0.50;0.50;;;;;;;;;;5019737;28;20446;-69
2022/04/05 14:22:12;;;;;;;1.67;1.10;;;;;;;;;;5018515;28;20833;-69
2022/04/05 14:24:42;;;;;;;3.20;1.23;;;;;;;;;;5020584;28;20456;-68
2022/04/05 14:27:09;;;;;;;4.00;1.63;;;;;;;;;;5000935;28;20907;-69
2022/04/05 14:29:36;;;;;;;1.43;0.70;;;;;;;;;;5022327;28;20491;-69
2022/04/05 14:32:03;;;;;;;2.63;1.10;;;;;;;;;;5018792;28;20831;-69
2022/04/05 14:34:31;;;;;;;4.70;1.70;;;;;;;;;;5017333;28;20476;-70
2022/04/05 14:36:59;;;;;;;3.10;1.17;;;;;;;;;;4988272;28;20442;-69
2022/04/05 14:39:35;;;;;;;4.53;1.83;;;;;;;;;;5005378;28;20449;-69
2022/04/05 14:42:04;;;;;;;4.57;1.90;;;;;;;;;;5017668;28;20461;-77
2022/04/05 14:44:32;;;;;;;4.00;1.67;;;;;;;;;;5021287;28;20531;-68
2022/04/05 14:47:02;;;;;;;7.57;1.80;;;;;;;;;;5019149;28;20555;-72
2022/04/05 14:49:29;;;;;;;2.70;1.10;;;;;;;;;;5018546;28;20473;-71
2022/04/05 14:51:56;;;;;;;4.20;1.40;;;;;;;;;;5021317;28;20472;-71
2022/04/05 14:54:23;;;;;;;4.20;1.87;;;;;;;;;;5021413;28;20761;-72
2022/04/05 14:56:50;;;;;;;3.87;1.67;;;;;;;;;;5019814;28;20438;-66
2022/04/05 14:59:22;;;;;;;2.70;1.43;;;;;;;;;;5019453;28;20446;-66
2022/04/05 15:01:49;;;;;;;4.03;1.77;;;;;;;;;;5020343;28;20521;-66
2022/04/05 15:04:16;;;;;;;2.13;1.20;;;;;;;;;;5019728;28;20457;-67
2022/04/05 15:06:47;;;;;;;3.87;1.77;;;;;;;;;;5019796;28;20449;-66
2022/04/05 15:09:14;;;;;;;3.30;1.87;;;;;;;;;;5021692;28;20563;-66
2022/04/05 15:11:41;;;;;;;4.20;2.17;;;;;;;;;;5003773;28;20446;-67
2022/04/05 15:14:09;;;;;;;3.47;1.40;;;;;;;;;;5021654;28;20476;-67
2022/04/05 15:16:38;;;;;;;2.53;1.40;;;;;;;;;;5020644;28;21101;-67
2022/04/05 15:19:04;;;;;;;3.10;1.57;;;;;;;;;;5029860;28;20444;-65
2022/04/05 15:21:31;;;;;;;4.60;1.57;;;;;;;;;;5038996;28;20437;-65
2022/04/05 15:23:59;;;;;;;4.23;1.50;;;;;;;;;;5040418;28;20440;-65
2022/04/05 15:26:26;;;;;;;2.33;1.17;;;;;;;;;;5031623;28;20441;-65
2022/04/05 15:28:53;;;;;;;5.27;1.97;;;;;;;;;;5014908;28;20436;-65
2022/04/05 15:31:20;;;;;;;4.30;2.00;;;;;;;;;;5044129;28;20442;-66
2022/04/05 15:33:47;;;;;;;4.03;1.63;;;;;;;;;;5036424;28;20520;-67